Time;durP1;ratioP1;P1;durP2;ratioP2;P2;SDS_P1;SDS_P2;PMS_P1;PMS_P2;Temp;Humidity;BMP_temperature;BMP_pressure;BME280_temperature;BME280_humidity;BME280_pressure;Samples;Min_cycle;Max_cycle;Signal;HPM_P1;HPM_P2
2021/06/22 00:02:13;;;;;;;39.47;6.95;;;;;;;22.98;82.34;97279.06;5066282;28;20229;-68
2021/06/22 00:04:40;;;;;;;39.13;7.05;;;;;;;22.63;84.01;97275.53;5064861;28;20726;-68
2021/06/22 00:07:07;;;;;;;40.17;7.03;;;;;;;22.91;82.01;97269.03;5066673;28;20234;-68
2021/06/22 00:09:34;;;;;;;36.78;6.38;;;;;;;22.85;82.47;97263.53;5069782;28;20225;-68
2021/06/22 00:12:01;;;;;;;41.85;7.63;;;;;;;22.49;84.40;97264.47;5067717;28;20642;-68
2021/06/22 00:14:28;;;;;;;40.15;7.18;;;;;;;22.39;85.19;97276.22;5068268;28;20718;-68
2021/06/22 00:16:54;;;;;;;44.78;8.40;;;;;;;21.90;87.63;97280.06;5067233;28;20784;-68
2021/06/22 00:19:21;;;;;;;45.15;8.80;;;;;;;21.21;93.35;97277.97;5067961;28;20220;-67
2021/06/22 00:21:47;;;;;;;50.15;9.20;;;;;;;20.95;95.42;97290.09;5068420;28;20753;-68
2021/06/22 00:24:14;;;;;;;44.78;8.65;;;;;;;20.53;98.76;97301.06;5068894;28;20220;-68
2021/06/22 00:26:42;;;;;;;37.65;7.95;;;;;;;20.22;100.00;97314.50;5066572;28;20237;-68
2021/06/22 00:29:09;;;;;;;42.20;8.70;;;;;;;19.97;100.00;97325.63;5069887;28;20217;-68
2021/06/22 00:31:35;;;;;;;60.97;13.38;;;;;;;19.81;100.00;97326.16;5066320;28;20233;-68
2021/06/22 00:34:02;;;;;;;49.33;9.75;;;;;;;19.93;100.00;97325.06;5067807;28;20212;-67
2021/06/22 00:36:28;;;;;;;47.75;8.40;;;;;;;20.08;100.00;97322.84;5066443;28;20232;-68
2021/06/22 00:38:55;;;;;;;49.22;9.15;;;;;;;20.33;100.00;97325.91;5070238;28;20217;-68
2021/06/22 00:41:21;;;;;;;43.72;8.50;;;;;;;20.34;99.83;97328.41;5068973;28;20240;-68
2021/06/22 00:43:49;;;;;;;43.00;8.23;;;;;;;20.43;98.99;97334.69;5067222;28;20213;-68
2021/06/22 00:46:16;;;;;;;39.97;7.97;;;;;;;20.52;97.32;97331.19;5069245;28;20236;-68
2021/06/22 00:48:42;;;;;;;41.45;8.40;;;;;;;20.50;96.81;97338.44;5067241;28;20213;-68
2021/06/22 00:51:10;;;;;;;41.17;7.63;;;;;;;20.88;95.54;97334.06;5070899;28;20229;-69
2021/06/22 00:53:36;;;;;;;39.92;7.85;;;;;;;20.86;94.56;97336.03;5071788;28;20217;-68
2021/06/22 00:56:03;;;;;;;37.47;6.47;;;;;;;21.07;94.03;97340.28;5070622;28;20245;-68
2021/06/22 00:58:30;;;;;;;40.13;7.97;;;;;;;20.66;93.45;97347.63;5068817;28;20220;-68
2021/06/22 01:01:00;;;;;;;38.65;7.72;;;;;;;20.74;93.70;97347.78;5069437;28;20240;-69
2021/06/22 01:03:27;;;;;;;44.75;7.70;;;;;;;20.84;93.90;97351.22;5071897;28;20225;-68
2021/06/22 01:05:53;;;;;;;47.63;9.10;;;;;;;20.63;93.80;97355.88;5071629;28;20232;-68
2021/06/22 01:08:20;;;;;;;51.65;9.50;;;;;;;20.37;95.75;97351.16;5072198;28;20243;-68
2021/06/22 01:10:46;;;;;;;48.92;8.70;;;;;;;20.69;93.56;97348.19;5069939;28;20244;-67
2021/06/22 01:13:13;;;;;;;48.05;8.20;;;;;;;20.80;93.67;97344.53;5070308;28;20233;-68
2021/06/22 01:15:40;;;;;;;41.33;7.10;;;;;;;20.87;92.99;97337.69;5070256;28;20884;-68
2021/06/22 01:18:08;;;;;;;41.22;7.80;;;;;;;20.92;91.95;97343.41;5067169;28;20213;-68
2021/06/22 01:20:36;;;;;;;46.67;7.53;;;;;;;21.06;92.54;97343.91;5069853;28;20233;-68
2021/06/22 01:23:05;;;;;;;48.00;7.82;;;;;;;21.17;91.26;97351.69;5070379;28;20226;-68
2021/06/22 01:25:33;;;;;;;41.10;8.50;;;;;;;21.07;90.48;97345.59;5068008;28;20237;-67
2021/06/22 01:28:00;;;;;;;43.35;9.02;;;;;;;20.78;91.33;97357.09;5071216;28;20893;-68
2021/06/22 01:30:27;;;;;;;43.88;8.95;;;;;;;20.82;91.10;97363.78;5069945;28;20233;-67
2021/06/22 01:32:54;;;;;;;43.85;8.30;;;;;;;20.77;92.31;97363.41;5066658;28;20239;-68
2021/06/22 01:35:21;;;;;;;48.38;8.18;;;;;;;21.07;91.75;97367.63;5069403;28;20214;-68
2021/06/22 01:37:51;;;;;;;50.72;9.20;;;;;;;21.09;90.99;97365.66;5069072;28;20205;-68
2021/06/22 01:40:19;;;;;;;53.25;9.70;;;;;;;20.66;92.81;97374.13;5069421;28;21088;-68
2021/06/22 01:42:46;;;;;;;46.28;8.43;;;;;;;20.86;91.92;97378.44;5069257;28;20230;-68
2021/06/22 01:45:14;;;;;;;45.55;10.88;;;;;;;20.63;92.89;97383.22;5070395;28;20213;-67
2021/06/22 01:47:40;;;;;;;47.40;9.40;;;;;;;20.86;92.21;97381.09;5068861;28;20735;-68
2021/06/22 01:50:08;;;;;;;44.85;9.13;;;;;;;20.47;93.36;97390.84;5071039;28;20231;-68
2021/06/22 01:52:35;;;;;;;42.42;7.88;;;;;;;21.03;91.23;97382.16;5070506;28;20226;-68
2021/06/22 01:55:34;;;;;;;50.92;9.85;;;;;;;20.53;91.59;97385.84;5070690;28;20225;-68
2021/06/22 01:57:50;;;;;;;45.88;8.38;;;;;;;20.85;92.16;97379.41;5070376;28;20226;-68
2021/06/22 02:00:17;;;;;;;42.60;8.52;;;;;;;20.88;90.30;97376.47;5070000;28;20218;-68
2021/06/22 02:02:44;;;;;;;41.10;8.68;;;;;;;20.22;93.72;97371.91;5071045;28;20341;-68
2021/06/22 02:05:11;;;;;;;33.28;7.60;;;;;;;20.48;93.06;97366.88;5068775;28;20213;-68
2021/06/22 02:07:38;;;;;;;40.20;7.18;;;;;;;21.28;90.83;97356.81;5070395;28;20239;-67
2021/06/22 02:10:05;;;;;;;36.83;7.45;;;;;;;20.96;89.40;97355.38;5071198;28;20224;-66
2021/06/22 02:12:32;;;;;;;44.28;8.98;;;;;;;20.38;92.03;97366.91;5070928;28;20234;-68
2021/06/22 02:15:00;;;;;;;46.30;9.45;;;;;;;20.51;91.63;97366.63;5069141;28;20239;-68
2021/06/22 02:17:27;;;;;;;41.30;7.07;;;;;;;21.09;91.25;97357.72;5064687;28;20241;-67
2021/06/22 02:19:53;;;;;;;47.25;7.82;;;;;;;21.30;89.42;97362.81;5069273;28;20240;-68
2021/06/22 02:22:20;;;;;;;48.70;8.48;;;;;;;21.02;89.93;97361.09;5068225;28;20240;-67
2021/06/22 02:24:46;;;;;;;53.28;10.00;;;;;;;20.58;91.89;97362.38;5069926;28;20216;-68
2021/06/22 02:27:22;;;;;;;54.15;10.07;;;;;;;20.55;91.20;97360.03;5069851;28;20261;-68
2021/06/22 02:29:49;;;;;;;53.67;9.90;;;;;;;20.10;93.23;97373.84;5068301;28;20209;-67
2021/06/22 02:32:17;;;;;;;56.42;10.38;;;;;;;19.96;93.50;97371.59;5069601;28;20237;-68
2021/06/22 02:34:43;;;;;;;48.95;8.65;;;;;;;20.10;93.68;97370.38;5069602;28;20209;-68
2021/06/22 02:37:10;;;;;;;53.08;9.98;;;;;;;20.09;92.86;97366.88;5070502;28;20243;-68
2021/06/22 02:39:36;;;;;;;35.60;7.22;;;;;;;20.21;92.84;97359.63;5069685;28;20251;-68
2021/06/22 02:42:03;;;;;;;58.15;10.80;;;;;;;20.09;92.42;97364.25;5066849;28;20248;-67
2021/06/22 02:44:30;;;;;;;53.90;10.27;;;;;;;19.77;93.32;97377.69;5068365;28;20209;-67
2021/06/22 02:46:57;;;;;;;50.30;9.20;;;;;;;20.15;90.99;97382.22;5069228;28;20240;-67
2021/06/22 02:49:25;;;;;;;50.75;10.38;;;;;;;20.32;89.20;97382.50;5068154;28;20215;-67
2021/06/22 02:51:51;;;;;;;52.95;10.40;;;;;;;20.21;89.29;97381.66;5067813;28;20249;-67
2021/06/22 02:54:18;;;;;;;56.50;10.75;;;;;;;20.20;89.21;97380.00;5066343;28;20792;-68
2021/06/22 02:56:44;;;;;;;46.70;9.82;;;;;;;20.03;90.14;97370.94;5068790;28;20243;-67
2021/06/22 02:59:11;;;;;;;57.25;12.13;;;;;;;19.76;92.35;97376.84;5065522;28;20226;-67
2021/06/22 03:01:37;;;;;;;54.15;11.40;;;;;;;19.41;95.10;97375.47;5067574;28;20256;-68
2021/06/22 03:04:04;;;;;;;55.70;11.07;;;;;;;19.30;95.83;97374.72;5067645;28;20209;-67
2021/06/22 03:06:32;;;;;;;40.40;8.95;;;;;;;19.22;95.86;97372.75;5066699;28;20241;-67
2021/06/22 03:08:58;;;;;;;51.55;10.27;;;;;;;19.06;96.53;97368.78;5069690;28;20213;-67
2021/06/22 03:11:25;;;;;;;54.35;9.90;;;;;;;19.09;96.36;97372.13;5068851;28;20241;-67
2021/06/22 03:13:51;;;;;;;42.45;7.22;;;;;;;19.79;94.65;97367.81;5069090;28;20228;-68
2021/06/22 03:16:18;;;;;;;39.25;7.00;;;;;;;20.11;95.29;97364.94;5066597;28;20233;-68
2021/06/22 03:18:44;;;;;;;36.05;7.57;;;;;;;20.03;93.20;97372.72;5067264;28;20222;-67
2021/06/22 03:21:11;;;;;;;40.13;9.57;;;;;;;19.44;94.91;97371.72;5065973;28;20749;-67
2021/06/22 03:23:39;;;;;;;40.25;9.70;;;;;;;19.52;94.90;97368.38;5071359;28;20213;-67
2021/06/22 03:26:05;;;;;;;38.28;10.93;;;;;;;19.70;93.16;97369.41;5067612;28;20240;-68
2021/06/22 03:28:32;;;;;;;38.17;10.70;;;;;;;19.59;93.59;97364.25;5064848;28;20218;-67
2021/06/22 03:30:58;;;;;;;33.40;9.55;;;;;;;19.66;92.75;97378.59;5068887;28;20236;-68
2021/06/22 03:33:25;;;;;;;37.83;10.88;;;;;;;19.62;93.84;97375.38;5068949;28;20233;-67
2021/06/22 03:35:52;;;;;;;33.83;10.07;;;;;;;19.48;95.18;97382.84;5067571;28;20248;-68
2021/06/22 03:38:18;;;;;;;46.03;11.02;;;;;;;19.54;95.28;97377.88;5068556;28;20220;-68
2021/06/22 03:40:46;;;;;;;38.25;11.20;;;;;;;19.63;94.89;97381.53;5068499;28;20237;-67
2021/06/22 03:43:13;;;;;;;34.15;11.27;;;;;;;19.39;97.69;97385.34;5067993;28;20240;-67
2021/06/22 03:45:39;;;;;;;33.78;9.82;;;;;;;19.36;97.71;97382.97;5067023;28;20236;-67
2021/06/22 03:48:07;;;;;;;39.15;10.32;;;;;;;19.56;96.12;97383.03;5066171;28;20218;-68
2021/06/22 03:50:33;;;;;;;29.27;8.93;;;;;;;19.34;98.01;97384.91;5067311;28;20228;-67
2021/06/22 03:53:00;;;;;;;31.40;9.10;;;;;;;19.08;99.17;97387.16;5069152;28;20239;-67
2021/06/22 03:55:27;;;;;;;33.13;9.75;;;;;;;19.00;99.07;97401.00;5068105;28;21493;-67
2021/06/22 03:57:56;;;;;;;42.90;10.35;;;;;;;19.10;98.51;97389.63;5067868;28;20215;-68
2021/06/22 04:00:23;;;;;;;45.45;10.13;;;;;;;19.06;99.73;97386.47;5066569;28;20223;-67
2021/06/22 04:02:51;;;;;;;26.38;7.55;;;;;;;19.55;98.70;97400.69;5067864;28;20237;-67
2021/06/22 04:05:18;;;;;;;48.45;8.95;;;;;;;19.96;95.72;97403.34;5066052;28;20220;-68
2021/06/22 04:07:45;;;;;;;45.03;13.23;;;;;;;19.38;97.96;97407.47;5066618;28;20225;-68
2021/06/22 04:10:12;;;;;;;42.08;10.82;;;;;;;19.36;98.28;97409.41;5066835;28;20588;-67
2021/06/22 04:12:39;;;;;;;54.25;10.40;;;;;;;19.47;98.40;97413.78;5070074;28;20731;-68
2021/06/22 04:15:07;;;;;;;32.47;9.02;;;;;;;19.42;98.21;97415.97;5070280;28;20218;-68
2021/06/22 04:17:34;;;;;;;36.13;13.00;;;;;;;19.32;99.33;97405.34;5069765;28;20233;-67
2021/06/22 04:20:01;;;;;;;56.40;16.50;;;;;;;19.18;100.00;97414.47;5072990;28;20219;-67
2021/06/22 04:22:28;;;;;;;40.17;14.77;;;;;;;19.44;98.78;97414.84;5073288;28;20302;-67
2021/06/22 04:24:54;;;;;;;46.33;16.30;;;;;;;19.24;100.00;97413.09;5072304;28;20868;-67
2021/06/22 04:27:21;;;;;;;67.68;18.27;;;;;;;19.14;100.00;97420.16;5070905;28;20335;-68
2021/06/22 04:29:48;;;;;;;67.22;17.52;;;;;;;19.10;100.00;97424.88;5071738;28;20697;-67
2021/06/22 04:32:16;;;;;;;63.78;19.17;;;;;;;19.38;100.00;97423.31;5068169;28;20243;-67
2021/06/22 04:34:42;;;;;;;59.42;16.20;;;;;;;19.51;99.66;97430.22;5072957;28;20221;-67
2021/06/22 04:37:09;;;;;;;66.65;18.23;;;;;;;19.52;100.00;97429.22;5069728;28;20247;-67
2021/06/22 04:39:36;;;;;;;62.80;17.52;;;;;;;19.07;100.00;97427.75;5069093;28;20228;-69
2021/06/22 04:42:03;;;;;;;37.38;16.73;;;;;;;18.99;100.00;97435.50;5070204;28;20766;-68
2021/06/22 04:44:29;;;;;;;54.55;14.68;;;;;;;19.24;100.00;97440.41;5069305;28;20209;-67
2021/06/22 04:46:56;;;;;;;39.38;17.15;;;;;;;19.14;100.00;97436.00;5071507;28;20247;-68
2021/06/22 04:49:23;;;;;;;37.50;16.67;;;;;;;19.04;100.00;97439.44;5068437;28;20785;-67
2021/06/22 04:51:50;;;;;;;63.88;19.33;;;;;;;19.12;100.00;97452.00;5069921;28;20245;-67
2021/06/22 04:54:17;;;;;;;45.88;17.50;;;;;;;19.06;100.00;97449.88;5069901;28;20255;-67
2021/06/22 04:56:45;;;;;;;54.33;17.85;;;;;;;19.29;100.00;97453.19;5069953;28;20325;-67
2021/06/22 04:59:12;;;;;;;66.95;19.80;;;;;;;19.21;100.00;97455.69;5072031;28;20225;-67
2021/06/22 05:01:38;;;;;;;60.75;22.83;;;;;;;19.32;100.00;97455.59;5068900;28;20241;-67
2021/06/22 05:04:06;;;;;;;53.38;18.95;;;;;;;19.14;100.00;97454.53;5068017;28;20209;-67
2021/06/22 05:06:34;;;;;;;46.70;18.60;;;;;;;19.19;100.00;97457.63;5070647;28;20241;-67
2021/06/22 05:09:01;;;;;;;46.20;18.85;;;;;;;19.09;100.00;97440.84;5074075;28;20216;-67
2021/06/22 05:11:27;;;;;;;52.17;19.73;;;;;;;19.00;100.00;97437.16;5071207;28;20724;-67
2021/06/22 05:13:54;;;;;;;33.63;18.15;;;;;;;18.96;100.00;97438.41;5072126;28;20240;-67
2021/06/22 05:16:20;;;;;;;38.40;20.30;;;;;;;19.13;100.00;97435.16;5073583;28;20610;-68
2021/06/22 05:18:47;;;;;;;39.13;19.17;;;;;;;19.05;100.00;97435.81;5070372;28;20221;-70
2021/06/22 05:21:13;;;;;;;34.90;19.02;;;;;;;19.26;100.00;97438.44;5074969;28;20233;-68
2021/06/22 05:23:41;;;;;;;43.35;18.95;;;;;;;19.25;100.00;97438.56;5073972;28;20205;-68
2021/06/22 05:26:08;;;;;;;27.05;16.90;;;;;;;19.37;100.00;97431.38;5069106;28;21067;-67
2021/06/22 05:28:35;;;;;;;34.42;16.10;;;;;;;19.48;99.38;97435.75;5073803;28;20217;-68
2021/06/22 05:31:01;;;;;;;40.33;15.95;;;;;;;19.65;97.50;97454.50;5076333;28;21003;-67
2021/06/22 05:33:28;;;;;;;47.58;15.57;;;;;;;19.63;100.00;97451.16;5068910;28;20707;-67
2021/06/22 05:35:54;;;;;;;44.63;13.20;;;;;;;20.11;100.00;97444.34;5071010;28;20237;-67
2021/06/22 05:38:21;;;;;;;51.65;18.52;;;;;;;19.60;94.88;97450.56;5073691;28;20213;-67
2021/06/22 05:40:49;;;;;;;45.30;17.83;;;;;;;19.43;100.00;97444.09;5072235;28;20250;-67
2021/06/22 05:43:15;;;;;;;41.90;16.15;;;;;;;19.84;99.83;97448.44;5069849;28;20582;-67
2021/06/22 05:45:42;;;;;;;50.58;18.67;;;;;;;19.71;100.00;97452.28;5074835;28;20237;-67
2021/06/22 05:48:09;;;;;;;48.38;16.00;;;;;;;19.89;98.06;97450.72;5070237;28;20213;-67
2021/06/22 05:50:35;;;;;;;49.35;17.58;;;;;;;19.70;100.00;97447.97;5070925;28;20233;-67
2021/06/22 05:53:02;;;;;;;45.03;14.45;;;;;;;19.96;100.00;97456.28;5071948;28;20252;-67
2021/06/22 05:55:28;;;;;;;42.35;15.45;;;;;;;19.91;97.72;97458.53;5069896;28;20228;-67
2021/06/22 05:57:59;;;;;;;52.35;16.25;;;;;;;19.71;99.48;97458.41;5074069;28;20320;-67
2021/06/22 06:00:26;;;;;;;38.78;14.43;;;;;;;19.89;100.00;97463.09;5071400;28;20784;-67
2021/06/22 06:02:53;;;;;;;55.47;17.05;;;;;;;19.80;100.00;97468.22;5073891;28;20232;-67
2021/06/22 06:05:22;;;;;;;47.95;15.63;;;;;;;19.72;100.00;97473.31;5070742;28;20569;-67
2021/06/22 06:07:48;;;;;;;41.88;16.98;;;;;;;19.57;100.00;97472.81;5074048;28;20215;-67
2021/06/22 06:10:16;;;;;;;49.08;16.00;;;;;;;19.82;100.00;97482.16;5068988;28;20217;-67
2021/06/22 06:12:43;;;;;;;52.42;17.35;;;;;;;19.81;100.00;97485.78;5072588;28;20249;-67
2021/06/22 06:15:12;;;;;;;43.15;17.15;;;;;;;19.66;100.00;97481.78;5070347;28;20786;-68
2021/06/22 06:17:39;;;;;;;52.60;17.73;;;;;;;19.68;100.00;97482.47;5073059;28;21080;-67
2021/06/22 06:20:07;;;;;;;41.88;15.65;;;;;;;19.96;100.00;97488.03;5071025;28;20232;-67
2021/06/22 06:22:34;;;;;;;44.30;17.02;;;;;;;19.99;100.00;97490.44;5073199;28;20232;-67
2021/06/22 06:25:03;;;;;;;40.45;13.55;;;;;;;20.09;99.42;97490.44;5072331;28;20213;-67
2021/06/22 06:27:38;;;;;;;49.28;17.58;;;;;;;19.92;100.00;97486.66;5073375;28;20232;-67
2021/06/22 06:30:08;;;;;;;49.53;17.45;;;;;;;19.80;100.00;97499.97;5071826;28;21048;-67
2021/06/22 06:32:36;;;;;;;41.80;16.42;;;;;;;19.75;100.00;97496.88;5072087;28;20228;-68
2021/06/22 06:35:02;;;;;;;47.22;16.92;;;;;;;19.96;100.00;97501.28;5068624;28;20244;-68
2021/06/22 06:37:29;;;;;;;43.08;15.98;;;;;;;20.14;100.00;97507.59;5070470;28;20245;-67
2021/06/22 06:39:55;;;;;;;49.25;17.60;;;;;;;20.12;97.17;97500.78;5071884;28;20608;-68
2021/06/22 06:42:22;;;;;;;53.53;18.83;;;;;;;20.18;95.19;97494.94;5071625;28;20267;-68
2021/06/22 06:44:49;;;;;;;52.67;21.67;;;;;;;20.12;97.72;97498.97;5072695;28;20209;-67
2021/06/22 06:47:15;;;;;;;53.55;19.50;;;;;;;20.08;93.96;97502.84;5073331;28;20233;-67
2021/06/22 06:49:43;;;;;;;55.97;19.63;;;;;;;20.22;94.61;97505.13;5072983;28;20228;-67
2021/06/22 06:52:10;;;;;;;45.20;17.52;;;;;;;20.37;95.23;97505.59;5069523;28;20248;-67
2021/06/22 06:54:36;;;;;;;56.72;20.50;;;;;;;20.31;95.43;97507.94;5073202;28;20232;-67
2021/06/22 06:57:03;;;;;;;51.20;17.23;;;;;;;20.29;95.24;97510.75;5070123;28;20241;-67
2021/06/22 06:59:30;;;;;;;46.53;17.25;;;;;;;20.27;95.48;97517.94;5072821;28;20221;-68
2021/06/22 07:01:56;;;;;;;56.35;18.85;;;;;;;20.12;93.88;97520.13;5067774;28;20724;-67
2021/06/22 07:04:23;;;;;;;47.15;17.77;;;;;;;20.42;92.20;97515.78;5070376;28;20217;-67
2021/06/22 07:06:51;;;;;;;43.20;18.35;;;;;;;20.44;92.08;97512.97;5070810;28;20255;-68
2021/06/22 07:09:17;;;;;;;47.08;19.80;;;;;;;20.23;96.45;97525.31;5070990;28;20214;-67
2021/06/22 07:11:44;;;;;;;46.67;19.08;;;;;;;20.25;92.12;97524.38;5066927;28;20233;-67
2021/06/22 07:14:14;;;;;;;45.97;19.30;;;;;;;20.22;93.60;97531.63;5070400;28;20239;-67
2021/06/22 07:16:41;;;;;;;47.95;20.88;;;;;;;20.13;98.76;97527.13;5071102;28;20291;-67
2021/06/22 07:19:07;;;;;;;41.83;19.08;;;;;;;20.12;99.71;97520.13;5072373;28;20213;-68
2021/06/22 07:21:35;;;;;;;58.63;21.98;;;;;;;20.00;94.14;97521.25;5070016;28;20237;-68
2021/06/22 07:24:03;;;;;;;41.15;19.50;;;;;;;19.97;98.34;97518.84;5069724;28;20205;-68
2021/06/22 07:26:29;;;;;;;42.05;20.38;;;;;;;20.04;98.10;97514.69;5069089;28;20902;-67
2021/06/22 07:28:56;;;;;;;37.75;17.10;;;;;;;20.36;94.61;97521.59;5071109;28;20213;-68
2021/06/22 07:31:22;;;;;;;39.55;15.70;;;;;;;20.43;94.54;97520.09;5067122;28;20241;-68
2021/06/22 07:33:50;;;;;;;68.45;22.67;;;;;;;20.50;94.13;97515.91;5066213;28;20263;-68
2021/06/22 07:36:17;;;;;;;44.65;19.90;;;;;;;20.58;94.37;97507.28;5069110;28;20267;-68
2021/06/22 07:38:43;;;;;;;40.30;22.83;;;;;;;20.33;98.04;97512.13;5070073;28;20249;-68
2021/06/22 07:41:11;;;;;;;42.88;19.50;;;;;;;20.31;98.73;97513.22;5069292;28;20237;-68
2021/06/22 07:43:39;;;;;;;40.47;18.10;;;;;;;20.33;97.79;97511.31;5066360;28;20205;-68
2021/06/22 07:46:06;;;;;;;39.13;22.17;;;;;;;20.41;95.69;97516.75;5069875;28;20241;-67
2021/06/22 07:48:32;;;;;;;41.42;23.92;;;;;;;20.62;96.15;97510.53;5071390;28;20212;-68
2021/06/22 07:51:01;;;;;;;31.42;15.25;;;;;;;20.75;94.88;97511.09;5070290;28;20241;-68
2021/06/22 07:53:27;;;;;;;39.80;20.15;;;;;;;20.66;94.13;97507.47;5072417;28;20316;-68
2021/06/22 07:55:54;;;;;;;51.83;22.67;;;;;;;20.85;92.81;97511.09;5070134;28;20252;-68
2021/06/22 07:58:22;;;;;;;37.28;16.27;;;;;;;20.90;93.42;97508.88;5067974;28;20221;-68
2021/06/22 08:00:49;;;;;;;37.80;16.92;;;;;;;21.26;88.72;97504.63;5067294;28;20233;-68
2021/06/22 08:03:17;;;;;;;36.08;15.77;;;;;;;21.20;87.69;97505.22;5071802;28;20290;-68
2021/06/22 08:05:45;;;;;;;33.85;16.60;;;;;;;21.27;88.21;97497.53;5069722;28;20241;-68
2021/06/22 08:08:14;;;;;;;40.97;20.30;;;;;;;21.29;91.64;97495.56;5070941;28;20213;-68
2021/06/22 08:10:42;;;;;;;39.55;17.58;;;;;;;21.72;88.69;97500.34;5072242;28;20677;-68
2021/06/22 08:13:08;;;;;;;40.95;14.90;;;;;;;21.75;87.34;97501.91;5069320;28;20782;-68
2021/06/22 08:15:37;;;;;;;44.13;20.40;;;;;;;21.47;86.30;97495.72;5070721;28;20257;-68
2021/06/22 08:18:04;;;;;;;39.20;17.20;;;;;;;21.69;86.28;97500.66;5072529;28;20551;-68
2021/06/22 08:20:31;;;;;;;41.38;14.88;;;;;;;21.96;85.62;97499.00;5069938;28;20244;-70
2021/06/22 08:22:59;;;;;;;41.15;18.20;;;;;;;21.83;90.87;97511.78;5071477;28;20229;-68
2021/06/22 08:25:26;;;;;;;40.17;19.50;;;;;;;21.82;85.15;97510.94;5070009;28;20209;-68
2021/06/22 08:27:53;;;;;;;40.53;17.83;;;;;;;21.99;84.51;97508.50;5069870;28;20712;-68
2021/06/22 08:30:21;;;;;;;39.28;15.35;;;;;;;22.25;83.55;97514.78;5070753;28;20220;-69
2021/06/22 08:32:49;;;;;;;47.50;15.85;;;;;;;22.07;87.66;97514.72;5070392;28;20725;-69
2021/06/22 08:35:16;;;;;;;32.42;10.73;;;;;;;22.25;83.35;97517.44;5069881;28;20240;-68
2021/06/22 08:37:43;;;;;;;44.92;16.58;;;;;;;21.90;88.08;97520.84;5071190;28;20697;-68
2021/06/22 08:40:11;;;;;;;40.90;14.60;;;;;;;22.41;83.81;97522.16;5072523;28;20212;-68
2021/06/22 08:42:39;;;;;;;29.90;13.57;;;;;;;22.85;80.04;97519.59;5070272;28;20243;-68
2021/06/22 08:45:09;;;;;;;27.77;10.50;;;;;;;22.77;80.14;97527.50;5071311;28;20216;-68
2021/06/22 08:47:36;;;;;;;34.28;9.70;;;;;;;23.12;77.74;97520.50;5070926;28;20237;-68
2021/06/22 08:50:05;;;;;;;36.85;15.75;;;;;;;22.93;78.30;97520.69;5070286;28;20225;-68
2021/06/22 08:52:32;;;;;;;39.53;15.02;;;;;;;23.19;77.41;97508.28;5067868;28;20238;-68
2021/06/22 08:55:00;;;;;;;33.80;10.18;;;;;;;23.38;76.61;97511.72;5067295;28;20686;-68
2021/06/22 08:57:27;;;;;;;28.63;10.25;;;;;;;23.27;76.86;97513.69;5066480;28;20275;-68
2021/06/22 08:59:54;;;;;;;30.23;9.20;;;;;;;23.48;75.63;97515.16;5073660;28;20741;-68
2021/06/22 09:02:25;;;;;;;40.30;10.35;;;;;;;23.59;75.21;97514.06;5071667;28;20241;-68
2021/06/22 09:04:52;;;;;;;35.70;10.05;;;;;;;23.44;76.07;97509.28;5069618;28;20322;-68
2021/06/22 09:07:45;;;;;;;37.50;10.75;;;;;;;23.16;76.90;97505.09;5072244;28;21119;-68
2021/06/22 09:10:20;;;;;;;37.55;11.85;;;;;;;22.95;75.98;97516.03;5072957;28;20738;-68
2021/06/22 09:12:47;;;;;;;37.85;10.75;;;;;;;23.24;76.51;97521.97;5072484;28;20232;-67
2021/06/22 09:15:25;;;;;;;33.03;10.55;;;;;;;23.10;74.59;97519.84;5072929;28;20233;-68
2021/06/22 09:17:52;;;;;;;35.78;10.60;;;;;;;23.05;76.07;97515.00;5073418;28;20209;-68
2021/06/22 09:20:33;;;;;;;40.17;11.30;;;;;;;23.07;75.23;97518.34;5071532;28;20210;-68
2021/06/22 09:23:22;;;;;;;32.88;9.85;;;;;;;23.33;74.41;97530.84;5072900;28;20256;-68
2021/06/22 09:25:51;;;;;;;40.25;11.05;;;;;;;23.23;76.24;97530.09;5067109;28;20244;-68
2021/06/22 09:28:22;;;;;;;31.70;9.32;;;;;;;23.62;73.92;97527.88;5073098;28;20717;-68
2021/06/22 09:30:51;;;;;;;36.58;9.50;;;;;;;24.00;71.65;97530.28;5073261;28;20233;-68
2021/06/22 09:33:26;;;;;;;32.90;8.75;;;;;;;24.59;69.38;97530.34;5074199;28;20241;-68
2021/06/22 09:36:02;;;;;;;37.50;9.02;;;;;;;24.56;67.53;97533.34;5072752;28;20245;-68
2021/06/22 09:38:32;;;;;;;31.55;7.93;;;;;;;24.80;68.69;97521.91;5074254;28;20220;-68
2021/06/22 09:41:10;;;;;;;32.35;8.15;;;;;;;24.84;67.35;97519.75;5073432;28;20241;-68
2021/06/22 09:43:42;;;;;;;29.55;7.93;;;;;;;24.39;70.68;97524.44;5075321;28;20252;-68
2021/06/22 09:46:09;;;;;;;33.92;9.27;;;;;;;23.77;74.98;97524.66;5068829;28;20331;-68
2021/06/22 09:48:50;;;;;;;34.55;8.65;;;;;;;23.94;71.42;97531.75;5071525;28;20227;-68
2021/06/22 09:51:17;;;;;;;35.85;8.30;;;;;;;24.01;71.12;97532.78;5072812;28;20914;-68
2021/06/22 09:53:45;;;;;;;39.97;9.25;;;;;;;24.22;70.01;97535.06;5073341;28;20226;-68
2021/06/22 09:56:24;;;;;;;38.28;9.40;;;;;;;24.21;71.06;97532.53;5071005;28;20256;-68
2021/06/22 09:58:51;;;;;;;36.85;8.50;;;;;;;24.55;68.81;97535.16;5070508;28;20224;-68
2021/06/22 10:01:25;;;;;;;36.85;8.25;;;;;;;24.88;67.40;97526.41;5072269;28;20233;-68
2021/06/22 10:03:53;;;;;;;30.05;7.78;;;;;;;25.17;66.04;97529.41;5068911;28;20220;-68
2021/06/22 10:06:19;;;;;;;35.80;8.40;;;;;;;25.09;65.97;97524.09;5074540;28;20290;-68
2021/06/22 10:08:55;;;;;;;32.42;8.15;;;;;;;24.73;67.80;97531.56;5069234;28;20217;-68
2021/06/22 10:11:32;;;;;;;40.75;9.18;;;;;;;25.01;66.57;97529.41;5072415;28;20235;-68
2021/06/22 10:13:59;;;;;;;28.90;7.50;;;;;;;24.65;66.53;97528.84;5071335;28;20217;-68
2021/06/22 10:16:29;;;;;;;27.55;7.05;;;;;;;24.81;67.00;97528.88;5071982;28;20241;-68
2021/06/22 10:18:55;;;;;;;30.98;7.80;;;;;;;24.83;65.58;97532.22;5070969;28;20217;-68
2021/06/22 10:21:22;;;;;;;28.52;7.78;;;;;;;24.44;70.10;97538.09;5073172;28;20279;-68
2021/06/22 10:23:49;;;;;;;38.45;9.32;;;;;;;24.15;69.80;97527.84;5069514;28;20226;-68
2021/06/22 10:26:17;;;;;;;39.85;9.43;;;;;;;24.39;68.38;97535.09;5070763;28;20233;-68
2021/06/22 10:28:45;;;;;;;33.13;8.35;;;;;;;24.48;69.42;97538.63;5069747;28;20213;-68
2021/06/22 10:31:12;;;;;;;35.75;9.10;;;;;;;24.22;71.05;97531.53;5068618;28;20226;-68
2021/06/22 10:33:38;;;;;;;52.22;11.40;;;;;;;24.23;72.11;97531.38;5069883;28;20219;-68
2021/06/22 10:36:06;;;;;;;31.52;8.10;;;;;;;24.54;69.82;97524.69;5068726;28;20743;-68
2021/06/22 10:38:36;;;;;;;28.38;7.15;;;;;;;24.75;68.74;97526.88;5072279;28;20216;-68
2021/06/22 10:41:03;;;;;;;34.97;8.18;;;;;;;24.76;66.65;97518.72;5071507;28;20241;-68
2021/06/22 10:43:38;;;;;;;36.97;9.02;;;;;;;24.74;67.08;97531.41;5069973;28;20233;-68
2021/06/22 10:46:07;;;;;;;34.17;7.97;;;;;;;25.09;64.36;97525.91;5069832;28;20279;-68
2021/06/22 10:48:41;;;;;;;37.58;8.43;;;;;;;25.47;64.78;97529.75;5073255;28;20256;-68
2021/06/22 10:51:30;;;;;;;38.42;12.48;;;;;;;25.14;67.61;97527.06;5071198;28;20622;-68
2021/06/22 10:53:57;;;;;;;30.67;9.40;;;;;;;25.08;66.43;97535.75;5063824;28;20208;-68
2021/06/22 10:56:25;;;;;;;40.63;11.45;;;;;;;24.64;63.76;97544.03;5071025;28;20320;-68
2021/06/22 10:59:25;;;;;;;39.40;10.60;;;;;;;24.33;69.13;97539.22;5087372;28;20274;-68
2021/06/22 11:02:05;;;;;;;43.85;10.98;;;;;;;24.04;67.81;97548.47;5070224;28;20631;-68
2021/06/22 11:04:32;;;;;;;37.60;10.82;;;;;;;24.27;65.04;97542.56;5075230;28;20677;-68
2021/06/22 11:07:11;;;;;;;39.53;8.73;;;;;;;24.25;67.69;97537.38;5067992;28;20720;-68
2021/06/22 11:09:37;;;;;;;38.97;8.18;;;;;;;24.47;68.66;97532.47;5072824;28;20221;-68
2021/06/22 11:12:23;;;;;;;35.28;8.02;;;;;;;24.69;67.17;97531.03;5069311;28;20606;-68
2021/06/22 11:15:08;;;;;;;44.50;9.00;;;;;;;24.95;66.07;97530.91;5072058;28;20233;-68
2021/06/22 11:17:57;;;;;;;26.20;6.50;;;;;;;25.32;64.95;97532.28;5071029;28;20239;-68
2021/06/22 11:20:23;;;;;;;34.10;9.95;;;;;;;25.30;61.65;97530.78;5066637;28;20952;-68
2021/06/22 11:23:01;;;;;;;37.85;8.85;;;;;;;25.08;63.55;97530.41;5067755;28;20241;-68
2021/06/22 11:25:45;;;;;;;35.63;9.05;;;;;;;24.67;61.60;97533.03;5068057;28;20251;-68